createdAt,value
2022-09-03T00:01:38.229Z,24.23
2022-09-03T00:04:25.771Z,25.42
2022-09-03T00:07:04.692Z,25.45
2022-09-03T00:09:45.786Z,24.80
2022-09-03T00:12:29.286Z,22.73
2022-09-03T00:15:17.478Z,24.80
2022-09-03T00:17:58.321Z,25.60
2022-09-03T00:20:43.574Z,21.80
2022-09-03T00:23:23.751Z,23.90
2022-09-03T00:26:21.144Z,22.52
2022-09-03T00:29:01.176Z,23.38
2022-09-03T00:34:45.704Z,25.25
2022-09-03T00:37:18.859Z,24.15
2022-09-03T00:39:49.189Z,25.45
2022-09-03T00:42:49.912Z,26.27
2022-09-03T00:45:36.590Z,23.08
2022-09-03T00:48:28.139Z,25.10
2022-09-03T00:51:37.697Z,25.55
2022-09-03T00:54:37.674Z,26.30
2022-09-03T01:00:13.314Z,26.80
2022-09-03T01:03:18.361Z,25.88
2022-09-03T01:06:07.653Z,26.60
2022-09-03T01:09:05.228Z,26.52
2022-09-03T01:11:59.142Z,27.40
2022-09-03T01:14:49.756Z,25.25
2022-09-03T01:17:38.667Z,24.75
2022-09-03T01:20:29.155Z,24.42
2022-09-03T01:23:31.467Z,25.55
2022-09-03T01:26:31.937Z,28.30
2022-09-03T01:29:19.359Z,26.27
2022-09-03T01:32:09.841Z,25.77
2022-09-03T01:34:56.558Z,25.33
2022-09-03T01:38:02.102Z,27.55
2022-09-03T01:41:25.048Z,27.33
2022-09-03T01:44:25.690Z,25.73
2022-09-03T01:47:13.253Z,22.92
2022-09-03T01:50:03.203Z,24.33
2022-09-03T01:55:53.970Z,22.73
2022-09-03T01:58:33.440Z,24.20
2022-09-03T02:01:09.889Z,25.60
2022-09-03T02:03:44.842Z,24.85
2022-09-03T02:06:15.860Z,25.88
2022-09-03T02:08:46.962Z,25.17
2022-09-03T02:11:17.360Z,24.05
2022-09-03T02:13:53.307Z,25.23
2022-09-03T02:16:27.065Z,25.77
2022-09-03T02:19:04.813Z,27.63
2022-09-03T02:21:39.163Z,27.42
2022-09-03T02:24:11.526Z,28.52
2022-09-03T02:26:41.861Z,27.63
2022-09-03T02:29:12.267Z,29.77
2022-09-03T02:31:42.863Z,29.05
2022-09-03T02:34:13.968Z,31.75
2022-09-03T02:36:50.245Z,29.98
2022-09-03T02:39:21.423Z,28.20
2022-09-03T02:42:00.677Z,33.17
2022-09-03T02:44:36.366Z,32.75
2022-09-03T02:47:12.666Z,30.15
2022-09-03T02:49:45.201Z,29.75
2022-09-03T02:52:16.826Z,29.00
2022-09-03T02:54:47.902Z,32.13
2022-09-03T02:57:27.460Z,30.48
2022-09-03T02:59:58.911Z,33.70
2022-09-03T03:02:30.047Z,29.73
2022-09-03T03:05:01.127Z,31.50
2022-09-03T03:07:35.513Z,31.27
2022-09-03T03:10:05.959Z,29.38
2022-09-03T03:12:38.461Z,29.48
2022-09-03T03:15:09.904Z,26.45
2022-09-03T03:17:41.392Z,28.52
2022-09-03T03:20:15.016Z,28.02
2022-09-03T03:22:48.091Z,28.75
2022-09-03T03:25:19.001Z,28.35
2022-09-03T03:27:52.993Z,27.40
2022-09-03T03:30:23.447Z,30.63
2022-09-03T03:32:57.765Z,29.83
2022-09-03T03:35:28.914Z,29.48
2022-09-03T03:38:06.754Z,30.20
2022-09-03T03:40:38.302Z,28.73
2022-09-03T03:43:10.801Z,29.88
2022-09-03T03:45:44.746Z,32.10
2022-09-03T03:48:15.887Z,32.50
2022-09-03T03:50:46.481Z,29.77
2022-09-03T03:53:20.193Z,30.08
2022-09-03T03:55:59.038Z,27.75
2022-09-03T03:58:31.144Z,31.45
2022-09-03T04:01:19.166Z,31.02
2022-09-03T04:03:50.053Z,29.92
2022-09-03T04:06:22.261Z,28.95
2022-09-03T04:08:53.460Z,27.10
2022-09-03T04:11:27.023Z,29.05
2022-09-03T04:13:58.658Z,29.15
2022-09-03T04:16:30.224Z,24.73
2022-09-03T04:19:01.817Z,22.85
2022-09-03T04:21:33.871Z,23.95
2022-09-03T04:24:06.940Z,23.55
2022-09-03T04:26:37.756Z,25.58
2022-09-03T04:29:10.542Z,25.38
2022-09-03T04:32:01.227Z,26.83
2022-09-03T04:34:31.737Z,25.48
2022-09-03T04:37:02.095Z,25.98
2022-09-03T04:39:33.168Z,25.27
2022-09-03T04:42:03.473Z,25.13
2022-09-03T04:44:34.976Z,27.98
2022-09-03T04:47:05.840Z,27.13
2022-09-03T04:49:36.822Z,28.35
2022-09-03T04:52:07.190Z,29.13
2022-09-03T04:54:37.617Z,29.65
2022-09-03T04:57:08.057Z,28.30
2022-09-03T04:59:41.176Z,29.50
2022-09-03T05:02:12.125Z,29.48
2022-09-03T05:04:42.575Z,30.13
2022-09-03T05:07:18.364Z,29.90
2022-09-03T05:09:51.024Z,29.30
2022-09-03T05:12:21.352Z,28.77
2022-09-03T05:14:51.609Z,27.95
2022-09-03T05:17:22.162Z,25.63
2022-09-03T05:19:52.632Z,26.25
2022-09-03T05:22:23.911Z,26.60
2022-09-03T05:24:55.365Z,22.23
2022-09-03T05:27:26.223Z,22.58
2022-09-03T05:34:49.776Z,23.00
2022-09-03T05:37:20.374Z,22.27
2022-09-03T05:39:50.914Z,22.42
2022-09-03T05:42:21.886Z,25.25
2022-09-03T05:44:52.410Z,21.98
2022-09-03T05:47:22.865Z,21.23
2022-09-03T05:49:53.148Z,23.27
2022-09-03T05:52:26.101Z,23.88
2022-09-03T05:54:56.587Z,22.38
2022-09-03T05:57:28.505Z,18.45
2022-09-03T06:00:00.088Z,17.85
2022-09-03T06:02:31.696Z,17.92
2022-09-03T06:05:02.578Z,17.63
2022-09-03T06:07:33.419Z,17.40
2022-09-03T06:10:03.687Z,18.67
2022-09-03T06:12:34.001Z,15.75
2022-09-03T06:15:04.333Z,15.00
2022-09-03T06:17:37.255Z,19.17
2022-09-03T06:20:08.132Z,18.40
2022-09-03T06:22:38.548Z,18.80
2022-09-03T06:25:09.801Z,19.65
2022-09-03T06:27:40.534Z,21.08
2022-09-03T06:30:11.923Z,18.08
2022-09-03T06:32:50.297Z,19.98
2022-09-03T06:35:21.333Z,20.38
2022-09-03T06:37:51.803Z,19.08
2022-09-03T06:40:24.712Z,16.05
2022-09-03T06:43:04.540Z,18.48
2022-09-03T06:45:34.865Z,17.75
2022-09-03T06:48:05.422Z,16.95
2022-09-03T07:03:37.923Z,18.23
2022-09-03T07:06:12.341Z,18.58
2022-09-03T07:27:00.276Z,18.88
2022-09-03T07:29:31.178Z,16.13
2022-09-03T07:32:02.137Z,16.77
2022-09-03T07:34:32.442Z,16.92
2022-09-03T07:37:03.004Z,15.43
2022-09-03T07:39:35.632Z,16.98
2022-09-03T07:42:06.535Z,15.82
2022-09-03T07:44:37.159Z,18.73
2022-09-03T07:47:08.494Z,16.85
2022-09-03T07:49:39.347Z,18.15
2022-09-03T07:52:11.924Z,18.10
2022-09-03T07:54:45.023Z,16.48
2022-09-03T07:57:17.640Z,17.52
2022-09-03T07:59:48.574Z,17.20
2022-09-03T08:02:19.043Z,15.02
2022-09-03T08:54:45.593Z,18.60
2022-09-03T08:57:17.455Z,17.20
2022-09-03T08:59:48.157Z,18.27
2022-09-03T09:02:37.040Z,18.98
2022-09-03T09:05:28.807Z,17.50
2022-09-03T09:08:11.866Z,20.90
2022-09-03T09:10:50.471Z,17.73
2022-09-03T09:41:41.447Z,18.17
2022-09-03T09:44:21.167Z,18.73
2022-09-03T09:46:54.941Z,18.20
2022-09-03T09:49:46.256Z,17.45
2022-09-03T09:52:19.140Z,19.05
2022-09-03T09:54:49.413Z,19.45
2022-09-03T09:57:26.608Z,17.95
2022-09-03T10:00:14.610Z,18.52
2022-09-03T10:02:56.415Z,18.98
2022-09-03T10:05:32.960Z,19.42
2022-09-03T10:08:07.351Z,20.58
2022-09-03T10:10:44.623Z,19.02
2022-09-03T10:13:26.447Z,18.17
2022-09-03T10:16:07.317Z,20.55
2022-09-03T10:18:47.902Z,20.65
2022-09-03T10:21:23.322Z,18.63
2022-09-03T10:24:31.506Z,22.52
2022-09-03T10:27:01.781Z,20.00
2022-09-03T10:29:32.303Z,19.65
2022-09-03T10:32:43.842Z,21.15
2022-09-03T10:35:35.751Z,21.48
2022-09-03T10:38:24.950Z,19.67
2022-09-03T10:41:22.337Z,21.08
2022-09-03T10:44:13.659Z,21.50
2022-09-03T10:47:06.416Z,21.50
2022-09-03T10:49:58.624Z,20.92
2022-09-03T10:52:51.704Z,22.58
2022-09-03T10:55:42.740Z,21.77
2022-09-03T10:58:45.908Z,21.40
2022-09-03T11:01:50.615Z,20.90
2022-09-03T11:04:51.557Z,21.98
2022-09-03T11:07:28.083Z,23.23
2022-09-03T11:10:16.754Z,22.13
2022-09-03T11:12:53.112Z,21.00
2022-09-03T11:15:33.471Z,23.15
2022-09-03T11:18:38.029Z,24.27
2022-09-03T11:21:14.944Z,26.92
2022-09-03T11:23:55.264Z,25.50
2022-09-03T11:26:28.501Z,24.45
2022-09-03T11:29:23.409Z,23.13
2022-09-03T11:32:13.032Z,22.15
2022-09-03T11:37:27.755Z,26.00
2022-09-03T11:40:01.850Z,24.13
2022-09-03T11:42:43.664Z,24.45
2022-09-03T11:45:40.569Z,31.38
2022-09-03T11:48:48.348Z,40.00
2022-09-03T11:51:40.142Z,24.60
2022-09-03T11:54:28.377Z,21.40
2022-09-03T11:57:16.784Z,20.50
2022-09-03T11:59:48.055Z,19.90
2022-09-03T12:02:37.976Z,22.88
2022-09-03T12:05:40.394Z,19.75
2022-09-03T12:08:36.580Z,21.85
2022-09-03T12:11:44.019Z,21.92
2022-09-03T12:14:43.964Z,21.63
2022-09-03T12:17:33.467Z,19.63
2022-09-03T12:20:03.853Z,20.77
2022-09-03T12:22:40.854Z,21.65
2022-09-03T12:25:17.569Z,21.67
2022-09-03T12:27:49.342Z,22.50
2022-09-03T12:30:22.232Z,24.52
2022-09-03T12:32:53.404Z,24.27
2022-09-03T12:38:26.680Z,23.05
2022-09-03T12:44:01.013Z,25.05
2022-09-03T12:46:34.685Z,25.20
2022-09-03T12:52:12.013Z,24.02
2022-09-03T12:55:03.830Z,26.02
2022-09-03T12:57:46.226Z,31.52
2022-09-03T13:00:21.821Z,33.67
2022-09-03T13:03:13.721Z,34.20
2022-09-03T13:05:52.747Z,28.05
2022-09-03T13:08:29.179Z,28.13
2022-09-03T13:11:03.815Z,27.85
2022-09-03T13:13:39.956Z,27.90
2022-09-03T13:16:45.431Z,30.85
2022-09-03T13:19:49.885Z,35.05
2022-09-03T13:22:49.510Z,32.35
2022-09-03T13:25:37.491Z,30.90
2022-09-03T13:28:35.533Z,30.85
2022-09-03T13:31:42.388Z,30.48
2022-09-03T13:34:34.848Z,30.48
2022-09-03T13:37:34.315Z,29.65
2022-09-03T13:40:33.721Z,29.45
2022-09-03T13:43:25.185Z,29.80
2022-09-03T13:46:14.384Z,30.48
2022-09-03T13:49:04.099Z,30.67
2022-09-03T13:51:59.288Z,33.67
2022-09-03T13:54:48.551Z,36.30
2022-09-03T13:57:47.327Z,36.08
2022-09-03T14:00:30.033Z,35.60
2022-09-03T14:03:26.850Z,33.35
2022-09-03T14:06:24.184Z,29.73
2022-09-03T14:09:24.537Z,30.52
2022-09-03T14:12:33.840Z,31.17
2022-09-03T14:15:44.862Z,29.20
2022-09-03T14:18:41.306Z,29.83
2022-09-03T14:21:27.539Z,30.10
2022-09-03T14:24:18.628Z,33.35
2022-09-03T14:26:58.666Z,34.72
2022-09-03T14:29:34.169Z,34.45
2022-09-03T14:32:30.287Z,38.50
2022-09-03T14:35:16.210Z,36.47
2022-09-03T14:38:25.172Z,32.67
2022-09-03T14:41:23.520Z,30.40
2022-09-03T14:44:25.295Z,36.45
2022-09-03T14:47:18.147Z,39.70
2022-09-03T14:50:13.913Z,39.22
2022-09-03T14:53:22.137Z,37.72
2022-09-03T14:56:13.522Z,37.40
2022-09-03T14:59:12.595Z,31.02
2022-09-03T15:01:43.412Z,34.08
2022-09-03T15:04:47.848Z,33.58
2022-09-03T15:07:35.301Z,32.10
2022-09-03T15:10:23.222Z,32.13
2022-09-03T15:13:01.893Z,28.38
2022-09-03T15:15:57.455Z,28.58
2022-09-03T15:18:54.899Z,27.27
2022-09-03T15:22:05.559Z,26.10
2022-09-03T15:25:05.850Z,26.77
2022-09-03T15:27:55.369Z,29.10
2022-09-03T15:30:25.900Z,27.38
2022-09-03T15:33:26.733Z,29.70
2022-09-03T15:36:19.795Z,31.42
2022-09-03T15:39:09.013Z,29.80
2022-09-03T15:42:00.425Z,30.42
2022-09-03T15:44:43.534Z,27.60
2022-09-03T15:47:25.792Z,27.25
2022-09-03T15:50:11.002Z,27.73
2022-09-03T15:52:56.281Z,31.15
2022-09-03T15:55:47.124Z,31.05
2022-09-03T15:58:40.314Z,30.00
2022-09-03T16:01:39.706Z,28.38
2022-09-03T16:04:30.559Z,27.65
2022-09-03T16:07:20.345Z,30.08
2022-09-03T16:13:31.872Z,26.95
2022-09-03T16:16:09.872Z,26.63
2022-09-03T16:18:49.997Z,27.05
2022-09-03T16:21:41.352Z,29.23
2022-09-03T16:24:28.511Z,26.70
2022-09-03T16:27:21.867Z,26.10
2022-09-03T16:30:14.339Z,23.60
2022-09-03T16:33:06.243Z,24.77
2022-09-03T16:36:13.851Z,19.48
2022-09-03T16:39:09.804Z,20.63
2022-09-03T16:42:08.874Z,18.60
2022-09-03T16:45:14.639Z,18.70
2022-09-03T16:48:04.936Z,21.15
2022-09-03T16:51:08.511Z,21.95
2022-09-03T16:54:06.637Z,19.17
2022-09-03T16:57:01.393Z,17.63
2022-09-03T16:59:54.295Z,18.40
2022-09-03T17:02:42.165Z,15.52
2022-09-03T17:05:47.214Z,18.63
2022-09-03T17:08:37.110Z,13.95
2022-09-03T17:11:34.129Z,11.88
2022-09-03T17:14:28.062Z,11.75
2022-09-03T17:17:25.726Z,13.95
2022-09-03T17:20:19.781Z,13.50
2022-09-03T17:23:19.271Z,12.88
2022-09-03T17:26:08.766Z,13.52
2022-09-03T17:29:10.645Z,15.05
2022-09-03T17:32:14.126Z,14.93
2022-09-03T17:35:13.392Z,15.73
2022-09-03T17:38:00.716Z,14.20
2022-09-03T17:40:57.944Z,14.05
2022-09-03T17:43:45.433Z,13.48
2022-09-03T17:46:52.098Z,14.25
2022-09-03T17:49:30.222Z,13.02
2022-09-03T17:52:22.440Z,11.05
2022-09-03T17:54:57.808Z,9.02
2022-09-03T17:57:48.396Z,9.45
2022-09-03T18:00:33.687Z,10.97
2022-09-03T18:03:27.555Z,10.68
2022-09-03T18:06:04.214Z,9.38
2022-09-03T18:08:57.628Z,9.80
2022-09-03T18:11:42.344Z,10.30
2022-09-03T18:14:45.058Z,11.35
2022-09-03T18:17:45.574Z,11.15
2022-09-03T18:20:34.869Z,10.90
2022-09-03T18:23:25.412Z,11.73
2022-09-03T18:26:15.575Z,11.30
2022-09-03T18:29:06.017Z,12.30
2022-09-03T18:31:56.284Z,13.00
2022-09-03T18:34:46.619Z,12.00
2022-09-03T18:37:36.864Z,12.23
2022-09-03T18:40:27.232Z,13.23
2022-09-03T18:43:47.603Z,13.48
2022-09-03T18:50:28.260Z,17.50
2022-09-03T18:53:18.677Z,13.85
2022-09-03T18:56:18.882Z,13.63
2022-09-03T18:59:29.387Z,12.93
2022-09-03T19:02:19.723Z,14.88
2022-09-03T19:05:30.021Z,13.13
2022-09-03T19:08:40.312Z,12.60
2022-09-03T19:11:55.426Z,14.68
2022-09-03T19:15:01.004Z,14.60
2022-09-03T19:18:01.531Z,13.65
2022-09-03T19:20:51.689Z,15.48
2022-09-03T19:23:32.062Z,15.25
2022-09-03T19:26:42.277Z,14.57
2022-09-03T19:29:52.817Z,14.40
2022-09-03T19:32:42.968Z,13.23
2022-09-03T19:35:33.343Z,12.90
2022-09-03T19:38:43.732Z,12.80
2022-09-03T19:41:44.092Z,13.32
2022-09-03T19:45:04.401Z,13.70
2022-09-03T19:48:04.783Z,12.95
2022-09-03T19:50:55.031Z,13.55
2022-09-03T19:53:45.435Z,12.32
2022-09-03T19:56:45.729Z,12.50
2022-09-03T19:59:36.150Z,12.55
2022-09-03T20:02:26.280Z,13.50
2022-09-03T20:05:16.863Z,11.35
2022-09-03T20:08:06.991Z,12.90
2022-09-03T20:10:39.048Z,10.43
2022-09-03T20:13:19.314Z,12.95
2022-09-03T20:16:11.963Z,11.27
2022-09-03T20:18:58.836Z,11.65
2022-09-03T20:21:51.954Z,9.70
2022-09-03T20:24:45.715Z,11.02
2022-09-03T20:27:31.271Z,11.70
2022-09-03T20:30:07.891Z,11.75
2022-09-03T20:32:54.257Z,12.57
2022-09-03T20:35:40.364Z,11.75
2022-09-03T20:38:49.720Z,12.48
2022-09-03T20:41:41.481Z,12.45
2022-09-03T20:44:31.747Z,11.73
2022-09-03T20:47:41.650Z,10.43
2022-09-03T20:53:23.194Z,12.93
2022-09-03T20:55:59.812Z,12.05
2022-09-03T20:58:48.039Z,15.18
2022-09-03T21:01:32.868Z,11.23
2022-09-03T21:04:37.625Z,11.00
2022-09-03T21:07:44.430Z,11.02
2022-09-03T21:10:40.866Z,11.82
2022-09-03T21:13:29.715Z,12.73
2022-09-03T21:16:30.191Z,11.57
2022-09-03T21:19:39.775Z,12.75
2022-09-03T21:22:44.755Z,12.23
2022-09-03T21:25:22.835Z,12.05
2022-09-03T21:28:01.835Z,11.40
2022-09-03T21:30:34.127Z,13.40
2022-09-03T21:33:22.624Z,12.45
2022-09-03T21:36:10.441Z,12.02
2022-09-03T21:38:42.505Z,13.23
2022-09-03T21:41:33.821Z,13.85
2022-09-03T21:44:33.589Z,14.10
2022-09-03T21:47:18.342Z,12.45
2022-09-03T21:50:16.801Z,12.88
2022-09-03T21:53:08.020Z,12.35
2022-09-03T21:55:59.313Z,12.10
2022-09-03T21:58:59.692Z,11.65
2022-09-03T22:01:59.746Z,8.52
2022-09-03T22:04:31.650Z,8.68
2022-09-03T22:07:30.601Z,7.10
2022-09-03T22:10:31.090Z,8.73
2022-09-03T22:13:16.927Z,8.60
2022-09-03T22:15:52.301Z,8.30
2022-09-03T22:18:29.536Z,8.48
2022-09-03T22:21:33.133Z,8.38
2022-09-03T22:24:27.189Z,7.80
2022-09-03T22:27:13.137Z,8.88
2022-09-03T22:30:06.137Z,9.57
2022-09-03T22:33:17.314Z,9.65
2022-09-03T22:36:16.665Z,10.23
2022-09-03T22:39:14.396Z,10.48
2022-09-03T22:42:10.077Z,12.68
2022-09-03T22:45:15.303Z,10.85
2022-09-03T22:48:24.525Z,10.18
2022-09-03T22:51:02.287Z,11.30
2022-09-03T22:53:45.866Z,10.45
2022-09-03T22:56:23.980Z,10.65
2022-09-03T22:59:16.537Z,11.60
2022-09-03T23:01:59.555Z,11.65
2022-09-03T23:04:52.096Z,11.88
2022-09-03T23:07:29.673Z,10.90
2022-09-03T23:10:07.334Z,11.65
2022-09-03T23:12:50.561Z,10.70
2022-09-03T23:15:31.396Z,11.93
2022-09-03T23:18:19.584Z,14.23
2022-09-03T23:21:01.295Z,12.23
2022-09-03T23:23:38.807Z,11.73
2022-09-03T23:26:23.670Z,12.50
2022-09-03T23:29:02.321Z,12.48
2022-09-03T23:31:32.750Z,12.50
2022-09-03T23:34:03.501Z,12.48
2022-09-03T23:37:22.325Z,12.02
2022-09-03T23:40:21.654Z,12.90
2022-09-03T23:43:21.842Z,14.88
2022-09-03T23:46:16.750Z,14.40
2022-09-03T23:49:25.889Z,13.57
2022-09-03T23:52:20.253Z,13.50
2022-09-03T23:55:01.488Z,12.73
2022-09-03T23:57:43.025Z,13.18
